createdAt,value
2017-09-25T00:03:05.979Z,64.30
2017-09-25T00:08:08.612Z,64.40
2017-09-25T00:13:12.005Z,64.70
2017-09-25T00:18:14.601Z,64.60
2017-09-25T00:23:17.229Z,64.80
2017-09-25T00:28:19.817Z,64.90
2017-09-25T00:33:22.432Z,65.00
2017-09-25T00:38:25.048Z,64.80
2017-09-25T00:43:27.659Z,65.30
2017-09-25T00:48:30.309Z,65.20
2017-09-25T00:53:45.722Z,65.70
2017-09-25T00:58:48.337Z,65.70
2017-09-25T01:03:53.851Z,65.80
2017-09-25T01:08:57.265Z,65.80
2017-09-25T01:13:59.910Z,65.80
2017-09-25T01:19:02.517Z,65.80
2017-09-25T01:24:05.127Z,65.40
2017-09-25T01:29:07.727Z,65.90
2017-09-25T01:34:10.331Z,66.10
2017-09-25T01:39:12.959Z,66.10
2017-09-25T01:44:15.620Z,66.60
2017-09-25T01:49:18.225Z,66.70
2017-09-25T01:54:20.824Z,66.60
2017-09-25T01:59:23.427Z,66.60
2017-09-25T02:04:26.057Z,66.40
2017-09-25T02:09:28.677Z,66.70
2017-09-25T02:14:31.282Z,66.90
2017-09-25T02:19:33.921Z,67.00
2017-09-25T02:24:36.591Z,67.10
2017-09-25T02:29:39.242Z,67.20
2017-09-25T02:34:41.886Z,66.90
2017-09-25T02:39:44.519Z,67.20
2017-09-25T02:44:47.102Z,67.30
2017-09-25T02:49:49.730Z,67.40
2017-09-25T02:54:52.359Z,68.00
2017-09-25T02:59:54.974Z,67.30
2017-09-25T03:04:57.602Z,67.40
2017-09-25T03:10:00.206Z,67.30
2017-09-25T03:15:03.605Z,67.60
2017-09-25T03:20:06.266Z,67.60
2017-09-25T03:25:08.895Z,67.50
2017-09-25T03:30:11.489Z,67.70
2017-09-25T03:35:14.085Z,67.60
2017-09-25T03:40:16.702Z,67.80
2017-09-25T03:45:19.319Z,67.90
2017-09-25T03:50:21.973Z,67.80
2017-09-25T03:55:24.608Z,67.20
2017-09-25T04:00:27.290Z,68.10
2017-09-25T04:05:29.926Z,68.30
2017-09-25T04:10:33.306Z,68.80
2017-09-25T04:15:35.938Z,68.20
2017-09-25T04:20:38.552Z,68.60
2017-09-25T04:25:41.943Z,69.10
2017-09-25T04:30:44.538Z,69.00
2017-09-25T04:35:47.154Z,69.30
2017-09-25T04:40:50.522Z,69.80
2017-09-25T04:45:53.393Z,69.70
2017-09-25T04:50:56.799Z,69.30
2017-09-25T04:55:59.394Z,69.90
2017-09-25T05:01:02.027Z,69.70
2017-09-25T05:06:04.662Z,69.80
2017-09-25T05:11:07.329Z,69.60
2017-09-25T05:16:09.940Z,69.90
2017-09-25T05:21:12.783Z,69.60
2017-09-25T05:26:15.400Z,70.20
2017-09-25T05:31:18.005Z,71.10
2017-09-25T05:36:20.616Z,70.10
2017-09-25T05:41:23.220Z,70.20
2017-09-25T05:46:25.842Z,70.60
2017-09-25T05:51:28.434Z,70.70
2017-09-25T05:56:31.862Z,70.80
2017-09-25T06:01:34.477Z,70.70
2017-09-25T06:06:37.094Z,70.60
2017-09-25T06:11:39.736Z,70.90
2017-09-25T06:16:43.133Z,71.40
2017-09-25T06:21:45.798Z,71.30
2017-09-25T06:26:49.576Z,71.20
2017-09-25T06:31:52.160Z,71.20
2017-09-25T06:36:55.542Z,71.50
2017-09-25T06:41:58.172Z,71.50
2017-09-25T06:47:00.819Z,71.10
2017-09-25T06:52:03.432Z,71.60
2017-09-25T06:57:06.060Z,71.30
2017-09-25T07:02:08.645Z,70.80
2017-09-25T07:07:11.341Z,71.10
2017-09-25T07:12:13.944Z,71.40
2017-09-25T07:17:16.605Z,71.10
2017-09-25T07:22:19.274Z,71.40
2017-09-25T07:27:22.712Z,71.50
2017-09-25T07:32:25.346Z,71.50
2017-09-25T07:37:28.717Z,71.00
2017-09-25T07:42:31.360Z,71.00
2017-09-25T07:47:34.001Z,71.10
2017-09-25T07:52:36.654Z,70.80
2017-09-25T07:57:39.284Z,70.80
2017-09-25T08:02:41.907Z,70.60
2017-09-25T08:07:44.570Z,70.80
2017-09-25T08:12:47.169Z,70.80
2017-09-25T08:17:49.762Z,70.80
2017-09-25T08:22:53.169Z,70.70
2017-09-25T08:27:55.818Z,70.70
2017-09-25T08:32:58.471Z,70.80
2017-09-25T08:38:01.089Z,70.50
2017-09-25T08:43:04.235Z,69.80
2017-09-25T08:48:07.506Z,69.20
2017-09-25T08:53:10.944Z,68.20
2017-09-25T08:58:13.585Z,68.30
2017-09-25T09:03:16.356Z,67.60
2017-09-25T09:13:54.869Z,66.80
2017-09-25T09:18:59.079Z,66.40
2017-09-25T09:24:05.342Z,66.00
2017-09-25T09:29:08.728Z,65.40
2017-09-25T09:39:21.610Z,64.30
2017-09-25T09:44:27.702Z,63.50
2017-09-25T09:49:31.190Z,62.80
2017-09-25T09:54:36.512Z,62.80
2017-09-25T10:04:47.963Z,62.90
2017-09-25T10:25:12.899Z,62.00
2017-09-25T10:30:19.235Z,61.80
2017-09-25T10:35:22.661Z,61.60
2017-09-25T10:40:27.957Z,60.70
2017-09-25T10:45:31.459Z,60.50
2017-09-25T10:50:36.614Z,59.40
2017-09-25T10:55:42.829Z,59.30
2017-09-25T11:05:54.214Z,57.90
2017-09-25T11:11:01.276Z,59.70
2017-09-25T11:16:06.930Z,59.60
2017-09-25T11:21:10.958Z,58.40
2017-09-25T11:31:24.806Z,58.70
2017-09-25T11:36:28.323Z,58.70
2017-09-25T11:41:34.487Z,58.30
2017-09-25T11:46:38.843Z,57.80
2017-09-25T11:51:43.297Z,57.80
2017-09-25T11:56:46.802Z,55.90
2017-09-25T12:01:51.201Z,56.60
2017-09-25T12:06:57.880Z,56.60
2017-09-25T12:12:01.984Z,57.20
2017-09-25T12:17:07.214Z,57.60
2017-09-25T12:32:25.150Z,56.20
2017-09-25T12:37:28.024Z,57.70
2017-09-25T12:42:32.554Z,56.80
2017-09-25T12:47:35.353Z,55.60
2017-09-25T12:52:39.847Z,55.40
2017-09-25T12:57:43.621Z,55.40
2017-09-25T13:02:47.919Z,54.50
2017-09-25T13:13:01.201Z,53.70
2017-09-25T13:18:05.947Z,53.60
2017-09-25T13:23:09.920Z,53.50
2017-09-25T13:28:16.200Z,54.70
2017-09-25T13:33:22.659Z,56.80
2017-09-25T13:38:29.737Z,55.80
2017-09-25T13:48:41.424Z,54.50
2017-09-25T14:04:02.730Z,55.50
2017-09-25T14:19:20.937Z,52.80
2017-09-25T14:24:25.582Z,54.00
2017-09-25T14:29:31.890Z,55.40
2017-09-25T14:34:36.738Z,55.70
2017-09-25T14:55:04.595Z,54.60
2017-09-25T15:00:08.845Z,54.10
2017-09-25T15:05:12.483Z,55.10
2017-09-25T15:10:15.430Z,55.80
2017-09-25T15:15:18.412Z,53.40
2017-09-25T15:20:21.390Z,55.60
2017-09-25T15:25:24.337Z,55.80
2017-09-25T15:30:31.311Z,55.90
2017-09-25T15:35:34.133Z,55.90
2017-09-25T15:40:38.007Z,56.20
2017-09-25T15:45:41.820Z,56.00
2017-09-25T15:50:44.808Z,55.70
2017-09-25T15:55:47.738Z,56.00
2017-09-25T16:00:50.772Z,56.10
2017-09-25T16:05:54.524Z,56.20
2017-09-25T16:10:58.409Z,56.30
2017-09-25T16:16:02.174Z,56.20
2017-09-25T16:21:05.035Z,56.30
2017-09-25T16:26:09.906Z,56.50
2017-09-25T16:31:13.642Z,56.80
2017-09-25T16:36:19.172Z,56.70
2017-09-25T16:41:25.139Z,56.80
2017-09-25T16:46:28.861Z,57.50
2017-09-25T16:51:32.827Z,56.90
2017-09-25T16:56:35.977Z,56.90
2017-09-25T17:01:38.794Z,56.90
2017-09-25T17:06:42.343Z,57.20
2017-09-25T17:11:46.490Z,57.80
2017-09-25T17:16:53.038Z,57.90
2017-09-25T17:21:59.328Z,57.80
2017-09-25T17:32:09.289Z,58.10
2017-09-25T17:37:12.958Z,58.40
2017-09-25T17:42:16.803Z,58.70
2017-09-25T17:52:28.380Z,59.20
2017-09-25T17:57:34.197Z,59.50
2017-09-25T18:02:36.900Z,59.80
2017-09-25T18:07:39.982Z,60.10
2017-09-25T18:12:45.799Z,61.00
2017-09-25T18:17:50.527Z,60.70
2017-09-25T18:22:53.586Z,61.00
2017-09-25T18:27:56.625Z,62.00
2017-09-25T18:33:01.091Z,61.90
2017-09-25T18:38:04.615Z,61.60
2017-09-25T18:43:10.999Z,61.60
2017-09-25T18:48:14.486Z,61.60
2017-09-25T18:53:18.350Z,61.70
2017-09-25T18:58:21.877Z,61.50
2017-09-25T19:03:27.245Z,61.60
2017-09-25T19:08:30.015Z,61.80
2017-09-25T19:28:56.556Z,63.20
2017-09-25T19:34:01.386Z,63.00
2017-09-25T19:39:08.715Z,63.50
2017-09-25T19:44:15.913Z,63.90
2017-09-25T19:49:32.981Z,63.80
2017-09-25T19:54:41.945Z,64.30
2017-09-25T19:59:45.418Z,64.10
2017-09-25T20:04:50.096Z,64.20
2017-09-25T20:09:53.842Z,64.20
2017-09-25T20:15:10.528Z,64.60
2017-09-25T20:20:15.206Z,64.60
2017-09-25T20:25:18.555Z,64.80
2017-09-25T20:30:22.956Z,65.00
2017-09-25T20:35:26.456Z,65.20
2017-09-25T20:40:37.327Z,65.20
2017-09-25T20:45:40.778Z,65.30
2017-09-25T20:50:44.758Z,65.40
2017-09-25T20:55:48.704Z,65.50
2017-09-25T21:00:52.182Z,65.50
2017-09-25T21:05:56.500Z,65.50
2017-09-25T21:16:06.715Z,65.90
2017-09-25T21:21:10.086Z,66.30
2017-09-25T21:36:50.219Z,66.40
2017-09-25T21:41:53.327Z,66.50
2017-09-25T21:46:56.747Z,66.70
2017-09-25T21:52:00.471Z,66.60
2017-09-25T21:57:03.209Z,66.70
2017-09-25T22:02:05.936Z,66.80
2017-09-25T22:07:09.241Z,67.00
2017-09-25T22:12:12.742Z,66.60
2017-09-25T22:17:15.763Z,66.60
2017-09-25T22:22:18.503Z,66.70
2017-09-25T22:27:22.955Z,67.10
2017-09-25T22:32:26.322Z,67.00
2017-09-25T22:37:30.626Z,66.80
2017-09-25T22:42:34.986Z,66.90
2017-09-25T22:47:39.117Z,67.30
2017-09-25T22:52:45.975Z,67.80
2017-09-25T22:57:48.769Z,67.70
2017-09-25T23:02:52.321Z,68.30
2017-09-25T23:07:55.769Z,68.00
2017-09-25T23:12:58.734Z,68.20
2017-09-25T23:18:02.982Z,68.80
2017-09-25T23:23:07.353Z,68.70
2017-09-25T23:28:13.538Z,68.60
2017-09-25T23:33:16.281Z,68.80
2017-09-25T23:38:20.651Z,69.10
2017-09-25T23:48:36.662Z,69.00
2017-09-25T23:53:41.748Z,69.20
2017-09-25T23:58:44.832Z,69.20
